Date,TemperatureHighF,TemperatureAvgF,TemperatureLowF,DewpointHighF,DewpointAvgF,DewpointLowF,HumidityHigh,HumidityAvg,HumidityLow,PressureMaxIn,PressureMinIn,WindSpeedMaxMPH,WindSpeedAvgMPH,GustSpeedMaxMPH,PrecipitationSumIn
2013-1-1,21.7,15.8,4.8,16.4,9.7,1.5,87,77,61,30.34,30.17,15,7,15,0.00
2013-1-2,29.5,17.4,3.9,19.3,11.3,0.5,89,77,63,30.29,30.17,13,3,13,0.00
2013-1-3,31.4,25.4,13.8,26.5,20.4,9.3,88,81,70,30.40,30.19,29,9,29,0.00
2013-1-4,34.6,23.3,10.4,25.0,17.4,6.4,87,79,67,30.38,30.30,25,6,25,0.00
2013-1-5,37.9,30.5,20.1,33.9,26.9,16.8,93,86,77,30.30,30.02,19,3,19,0.02
2013-1-6,37.0,27.2,20.8,33.1,22.5,16.6,87,82,79,30.26,30.01,33,16,33,0.00
2013-1-7,40.3,36.0,31.5,30.4,28.8,26.1,85,75,62,30.31,30.14,20,7,23,0.00
2013-1-8,45.5,35.2,26.5,35.2,29.5,23.6,90,80,63,30.18,30.07,18,6,18,0.00
2013-1-9,48.9,39.3,29.4,37.2,31.9,26.6,90,75,54,30.52,30.09,23,6,23,0.00
2013-1-10,49.1,37.7,29.6,48.3,32.6,25.3,97,82,58,30.50,29.81,19,7,19,0.91
2013-1-11,57.2,51.7,46.8,51.7,48.8,45.7,97,90,80,29.82,29.69,23,7,26,0.41
2013-1-12,53.1,39.8,25.2,48.2,34.9,22.4,91,82,76,30.00,29.72,23,10,25,0.00
2013-1-13,25.2,19.4,14.5,22.2,14.7,9.7,89,82,76,30.35,29.94,26,11,26,0.00
2013-1-14,27.2,17.8,12.6,16.6,12.5,8.9,87,80,62,30.53,30.35,13,3,13,0.00
2013-1-15,29.7,20.8,12.8,20.8,14.9,9.0,88,78,57,30.49,30.18,9,2,9,0.00
2013-1-16,38.7,28.6,15.5,29.4,20.4,11.7,86,72,53,30.18,29.94,25,4,26,0.01
2013-1-17,35.2,29.6,23.7,30.2,22.7,17.2,92,76,54,30.47,30.12,22,8,22,0.00
2013-1-18,47.2,35.4,22.7,33.2,26.2,18.2,85,70,56,30.48,30.02,26,6,26,0.00
2013-1-19,52.4,43.7,30.2,39.7,33.5,19.9,75,67,60,30.11,29.82,37,11,39,0.00
2013-1-20,30.2,19.2,15.7,18.1,11.5,7.9,82,72,58,30.37,30.11,34,13,39,0.00
2013-1-21,16.1,9.7,5.4,10.5,0.9,-3.4,81,67,49,30.42,30.29,31,15,31,0.00
2013-1-22,15.3,9.4,2.2,5.6,-0.6,-5.3,77,64,48,30.51,30.41,21,8,21,0.00
2013-1-23,33.9,21.3,13.9,19.4,10.3,3.6,72,62,49,30.43,30.16,28,7,28,0.00
2013-1-24,23.0,16.8,7.9,10.6,5.3,-1.0,80,60,48,30.69,30.33,20,8,21,0.00
2013-1-25,37.7,27.5,19.8,22.0,16.3,9.2,76,63,48,30.34,30.05,29,9,29,0.00
2013-1-26,31.3,22.3,9.9,18.2,11.8,5.2,84,65,46,30.45,30.26,15,4,15,0.00
2013-1-27,45.1,32.6,27.2,44.3,28.2,18.1,97,84,67,30.38,29.91,25,9,25,0.17
2013-1-28,56.0,50.4,45.1,55.5,49.6,44.3,98,97,96,29.95,29.76,19,6,20,0.01
2013-1-29,64.7,56.8,42.3,60.8,55.3,41.2,98,95,87,29.76,29.39,22,6,22,1.13
2013-1-30,42.3,31.8,18.4,41.0,29.3,13.1,97,90,79,29.83,29.27,40,16,40,0.36
2013-1-31,23.1,14.4,6.4,18.3,8.5,-0.1,83,77,67,30.35,29.82,37,19,37,0.00